Yellow Pine, ID

1:24 PM MST on November 24, 2014 (GMT -0700)
Challis | Change Station
CLOSE
Current Station
Airport
Location: Challis,
Elevation: 5072 ft
Nearby Weather Stations

Elev 5072 ft 44.52 °N, 114.21 °W | Updated 29 minutes ago

Clear
Clear
35 °F
Feels Like 29 °F
N
7
Wind Variable Wind from South

Today
High -- | Low -- °F
--% Chance of Precip.
Yesterday
High -- | Low -- °F
Precip. -- in
7:51 AM 5:04 PM
Waxing Crescent, 7% visible
Pressure 30.38 in
Visibility 10.0 miles
Clouds Clear
Windchill 29 °F
Dew Point 13 °F
Humidity 40%
Rainfall 0.00 in
Snow Depth Not available.
UV 2 out of 12
Pollen .10 out of 12
Air Quality Not available.
Flu Activity Not available.
METAR KLLJ 241955Z AUTO 19006KT 10SM CLR 02/M11 A3031 RMK AO2 SLP285 T00171106

More Conditions Fewer Conditions

Pressure 30.38 in
Visibility 10.0 miles
Clouds Clear
Windchill 29 °F
Dew Point 13 °F
Humidity 40%
Rainfall 0.00 in
Snow Depth Not available.
UV 2 out of 12
Pollen .10 out of 12
Air Quality Not available.
Flu Activity Not available.
METAR KLLJ 241955Z AUTO 19006KT 10SM CLR 02/M11 A3031 RMK AO2 SLP285 T00171106

More Conditions Fewer Conditions

10-Day Weather Forecast

Almanac

Astronomy

Nov. 24, 2014 Rise Set
Actual Time
Civil Twilight
Nautical Twilight
Astronomical Twilight
Moon
Length of Visible Light
Length of Day
Tomorrow will be .
, % of the Moon is Illuminated

Today's Extremes

State Highs State Lows

Community

WunderPhotos

Upload Photos

1,773,403 photos uploaded!

WunderBlogs® & News

Nearby

Air Quality

  Air Quality AQ Index Pollutant
Not available.

Snow Depth

Station Depth Elevation

Earthquake Activity

City Distance Mag. Time & Date
Minimum magnitude displayed is 2.5.

Coastal Water Temperatures

Place Temperature

Nearby Weather Stations